Time;durP1;ratioP1;P1;durP2;ratioP2;P2;SDS_P1;SDS_P2;PMS_P1;PMS_P2;Temp;Humidity;BMP_temperature;BMP_pressure;BME280_temperature;BME280_humidity;BME280_pressure;Samples;Min_cycle;Max_cycle;Signal;HPM_P1;HPM_P2
2023/10/23 00:00:43;;;;;;;4.07;1.85;;;;;;;18.69;91.27;100518.19;5032285;28;20088;-72
2023/10/23 00:03:12;;;;;;;1.88;1.30;;;;;;;18.74;89.41;100532.16;5029340;28;20046;-74
2023/10/23 00:05:40;;;;;;;3.65;2.35;;;;;;;18.77;88.99;100532.16;5043251;28;20529;-75
2023/10/23 00:08:09;;;;;;;2.50;1.23;;;;;;;18.73;89.70;100522.53;5039184;28;20102;-76
2023/10/23 00:10:41;;;;;;;3.42;1.90;;;;;;;18.75;92.85;100528.66;5042642;28;20048;-79
2023/10/23 00:13:09;;;;;;;3.80;1.70;;;;;;;18.76;91.90;100525.13;5034818;28;20041;-76
2023/10/23 00:15:38;;;;;;;4.10;2.00;;;;;;;18.76;89.77;100525.13;5045667;28;20052;-75
2023/10/23 00:18:07;;;;;;;2.75;1.73;;;;;;;18.75;89.16;100524.25;5040700;28;20071;-77
2023/10/23 00:20:37;;;;;;;2.17;1.70;;;;;;;18.75;88.95;100528.66;5037094;28;20137;-82
2023/10/23 00:23:06;;;;;;;3.00;2.00;;;;;;;18.74;89.17;100527.78;5041957;28;20084;-83
2023/10/23 00:25:34;;;;;;;3.05;1.85;;;;;;;18.73;88.84;100526.03;5046369;28;20049;-87
2023/10/23 00:28:05;;;;;;;3.08;2.10;;;;;;;18.68;90.24;100525.19;5045208;28;20057;-76
2023/10/23 00:30:35;;;;;;;3.58;1.50;;;;;;;18.63;90.36;100527.84;5035325;28;20052;-74
2023/10/23 00:33:07;;;;;;;2.58;1.65;;;;;;;18.60;89.76;100527.88;5036265;28;20049;-77
2023/10/23 00:35:36;;;;;;;5.65;1.90;;;;;;;18.56;89.46;100526.16;5030543;28;20099;-76
2023/10/23 00:38:05;;;;;;;2.80;2.20;;;;;;;18.49;89.21;100516.59;5040968;28;20049;-79
2023/10/23 00:40:34;;;;;;;3.45;2.15;;;;;;;18.49;89.75;100521.84;5037926;28;20156;-79
2023/10/23 00:43:14;;;;;;;2.70;1.85;;;;;;;18.49;91.61;100523.59;5035466;28;20071;-77
2023/10/23 00:45:51;;;;;;;5.68;1.90;;;;;;;18.45;91.72;100530.59;5042367;28;20106;-79
2023/10/23 00:48:23;;;;;;;3.15;1.65;;;;;;;18.40;91.80;100532.38;5044844;28;20059;-75
2023/10/23 00:50:52;;;;;;;4.32;1.52;;;;;;;18.36;92.82;100528.03;5029315;28;20049;-76
2023/10/23 00:53:25;;;;;;;3.20;1.65;;;;;;;18.32;93.69;100528.94;5037640;28;20048;-82
2023/10/23 00:55:55;;;;;;;2.10;1.63;;;;;;;18.26;93.45;100534.22;5030110;28;20049;-74
2023/10/23 00:58:30;;;;;;;2.55;1.70;;;;;;;18.23;93.97;100544.69;5038275;28;20049;-76
2023/10/23 01:01:01;;;;;;;3.03;1.20;;;;;;;18.18;95.24;100542.97;5031247;28;20041;-77
2023/10/23 01:03:30;;;;;;;1.88;1.40;;;;;;;18.13;95.84;100547.38;5041700;28;20056;-75
2023/10/23 01:05:58;;;;;;;3.03;1.58;;;;;;;18.10;95.53;100550.00;5037941;28;20072;-75
2023/10/23 01:08:28;;;;;;;3.13;1.88;;;;;;;18.06;96.16;100545.66;5030500;28;20380;-77
2023/10/23 01:10:57;;;;;;;2.20;1.63;;;;;;;18.03;96.40;100558.78;5036838;28;20052;-77
2023/10/23 01:13:27;;;;;;;2.40;1.67;;;;;;;17.99;97.07;100557.03;5039705;28;20049;-77
2023/10/23 01:15:56;;;;;;;3.60;1.52;;;;;;;17.95;94.74;100568.38;5033222;28;20057;-74
2023/10/23 01:18:25;;;;;;;3.05;1.50;;;;;;;17.92;95.33;100573.66;5032683;28;20056;-76
2023/10/23 01:21:02;;;;;;;2.42;1.40;;;;;;;17.90;95.76;100573.63;5042094;28;20044;-76
2023/10/23 01:23:36;;;;;;;3.83;1.80;;;;;;;17.87;95.61;100583.28;5030514;28;20038;-75
2023/10/23 01:26:15;;;;;;;3.40;1.73;;;;;;;17.84;94.83;100583.25;5026864;28;20119;-75
2023/10/23 01:28:45;;;;;;;2.17;1.42;;;;;;;17.80;94.93;100587.63;5034080;28;20045;-76
2023/10/23 01:31:14;;;;;;;2.35;1.52;;;;;;;17.77;95.35;100592.84;5035257;28;20045;-75
2023/10/23 01:33:43;;;;;;;4.97;1.60;;;;;;;17.71;96.75;100604.19;5039190;28;20049;-75
2023/10/23 01:36:19;;;;;;;2.67;1.77;;;;;;;17.67;97.33;100597.22;5029368;28;20050;-76
2023/10/23 01:38:48;;;;;;;3.45;2.00;;;;;;;17.63;96.93;100605.94;5036058;28;20503;-75
2023/10/23 01:41:18;;;;;;;6.05;1.77;;;;;;;17.57;97.64;100604.22;5030932;28;20041;-77
2023/10/23 01:43:46;;;;;;;3.33;1.52;;;;;;;17.56;98.06;100607.69;5031169;28;20103;-76
2023/10/23 01:46:19;;;;;;;5.35;2.70;;;;;;;17.52;99.14;100615.56;5037803;28;20045;-76
2023/10/23 01:48:48;;;;;;;4.00;1.75;;;;;;;17.44;99.45;100614.72;5036682;28;20067;-75
2023/10/23 01:51:16;;;;;;;2.60;2.00;;;;;;;17.36;100.00;100612.97;5026149;28;20591;-74
2023/10/23 01:53:45;;;;;;;4.28;1.88;;;;;;;17.28;100.00;100614.72;5034018;28;20081;-76
2023/10/23 01:56:18;;;;;;;2.83;1.85;;;;;;;17.20;100.00;100621.69;5044047;28;20048;-75
2023/10/23 01:58:49;;;;;;;2.92;1.70;;;;;;;17.16;100.00;100619.94;5029054;28;20053;-75
2023/10/23 02:01:22;;;;;;;4.18;1.90;;;;;;;17.17;100.00;100626.91;5029958;28;20063;-77
2023/10/23 02:03:53;;;;;;;5.53;1.75;;;;;;;17.19;100.00;100629.53;5027147;28;20049;-81
2023/10/23 02:06:24;;;;;;;5.25;2.20;;;;;;;17.13;100.00;100630.38;5037430;28;20084;-78
2023/10/23 02:08:53;;;;;;;6.07;1.83;;;;;;;17.10;100.00;100630.41;5040410;28;20525;-79
2023/10/23 02:11:22;;;;;;;6.50;2.00;;;;;;;17.10;100.00;100635.63;5044184;28;20104;-78
2023/10/23 02:13:52;;;;;;;5.70;2.35;;;;;;;17.06;100.00;100633.88;5038857;28;20976;-77
2023/10/23 02:16:34;;;;;;;5.57;2.30;;;;;;;17.07;100.00;100635.63;5035583;28;20553;-77
2023/10/23 02:19:02;;;;;;;6.72;2.25;;;;;;;17.06;100.00;100631.25;5040469;28;20120;-77
2023/10/23 02:21:31;;;;;;;3.40;2.10;;;;;;;17.04;100.00;100630.38;5035716;28;20045;-76
2023/10/23 02:24:02;;;;;;;5.38;2.35;;;;;;;17.04;100.00;100630.38;5028151;28;20056;-76
2023/10/23 02:26:31;;;;;;;5.93;2.40;;;;;;;17.06;100.00;100631.25;5021012;28;20112;-79
2023/10/23 02:29:02;;;;;;;4.72;2.15;;;;;;;17.07;100.00;100636.50;5018223;28;20041;-77
2023/10/23 02:31:30;;;;;;;3.28;2.22;;;;;;;17.05;100.00;100632.16;5024586;28;20057;-78
2023/10/23 02:33:59;;;;;;;3.65;2.17;;;;;;;17.01;100.00;100630.38;5016774;28;20107;-79
2023/10/23 02:36:31;;;;;;;4.60;2.55;;;;;;;16.99;100.00;100638.22;5022874;28;20053;-79
2023/10/23 02:39:06;;;;;;;3.50;2.58;;;;;;;16.98;100.00;100646.09;5020710;28;20469;-79
2023/10/23 02:41:34;;;;;;;5.05;2.42;;;;;;;16.98;100.00;100648.69;5024161;28;20052;-75
2023/10/23 02:44:04;;;;;;;4.97;2.17;;;;;;;16.95;100.00;100647.81;5031506;28;20483;-78
2023/10/23 02:46:35;;;;;;;6.43;2.60;;;;;;;16.90;100.00;100656.50;5022285;28;20622;-78
2023/10/23 02:49:04;;;;;;;4.70;2.80;;;;;;;16.80;100.00;100658.22;5021419;28;20091;-77
2023/10/23 02:51:32;;;;;;;8.40;2.65;;;;;;;16.84;100.00;100664.34;5028018;28;20041;-76
2023/10/23 02:54:01;;;;;;;4.65;2.67;;;;;;;16.83;100.00;100671.28;5025554;28;20537;-77
2023/10/23 02:56:31;;;;;;;7.07;2.38;;;;;;;16.76;100.00;100661.66;5025098;28;20371;-77
2023/10/23 02:59:00;;;;;;;6.45;2.60;;;;;;;16.68;100.00;100672.09;5023746;28;20105;-77
2023/10/23 03:01:30;;;;;;;4.47;2.22;;;;;;;16.63;100.00;100665.09;5019521;28;20073;-76
2023/10/23 03:03:59;;;;;;;4.05;2.47;;;;;;;16.61;100.00;100674.69;5023401;28;20108;-77
2023/10/23 03:06:27;;;;;;;7.15;2.88;;;;;;;16.61;100.00;100679.94;5016802;28;20053;-77
2023/10/23 03:08:56;;;;;;;3.92;2.08;;;;;;;16.63;100.00;100683.38;5022421;28;20049;-76
2023/10/23 03:11:24;;;;;;;6.88;2.45;;;;;;;16.62;100.00;100685.13;5024180;28;20052;-77
2023/10/23 03:13:53;;;;;;;5.40;2.58;;;;;;;16.61;100.00;100699.09;5026102;28;20101;-76
2023/10/23 03:16:24;;;;;;;3.28;2.20;;;;;;;16.61;100.00;100708.66;5022246;28;20447;-76
2023/10/23 03:18:56;;;;;;;3.73;2.90;;;;;;;16.60;100.00;100705.16;5026337;28;20081;-76
2023/10/23 03:21:25;;;;;;;4.82;2.70;;;;;;;16.61;100.00;100708.66;5033246;28;20053;-76
2023/10/23 03:23:53;;;;;;;7.38;2.88;;;;;;;16.59;100.00;100710.41;5022453;28;20050;-77
2023/10/23 03:26:22;;;;;;;5.38;2.60;;;;;;;16.57;100.00;100717.34;5023965;28;20450;-76
2023/10/23 03:28:50;;;;;;;3.58;2.67;;;;;;;16.54;100.00;100719.06;5022878;28;20151;-77
2023/10/23 03:31:21;;;;;;;8.07;3.53;;;;;;;16.48;100.00;100719.03;5024831;28;20100;-76
2023/10/23 03:33:50;;;;;;;4.75;2.80;;;;;;;16.50;100.00;100719.06;5020405;28;20511;-77
2023/10/23 03:36:20;;;;;;;3.88;2.22;;;;;;;16.50;100.00;100726.88;5021698;28;20041;-76
2023/10/23 03:38:49;;;;;;;8.73;2.85;;;;;;;16.48;100.00;100724.25;5022836;28;20403;-76
2023/10/23 03:41:17;;;;;;;8.35;2.70;;;;;;;16.47;100.00;100727.75;5018446;28;20045;-77
2023/10/23 03:43:47;;;;;;;4.68;2.85;;;;;;;16.45;100.00;100729.47;5028761;28;20053;-77
2023/10/23 03:46:15;;;;;;;4.43;3.10;;;;;;;16.45;100.00;100733.84;5024591;28;20163;-76
2023/10/23 03:48:47;;;;;;;7.13;3.25;;;;;;;16.44;99.18;100732.06;5022919;28;20513;-82
2023/10/23 03:51:16;;;;;;;3.90;2.67;;;;;;;16.44;98.67;100732.94;5023544;28;20061;-79
2023/10/23 03:53:46;;;;;;;6.70;2.85;;;;;;;16.42;96.60;100729.44;5024023;28;20045;-78
2023/10/23 03:56:15;;;;;;;3.45;2.40;;;;;;;16.41;94.79;100734.69;5017795;28;20060;-77
2023/10/23 03:58:45;;;;;;;4.05;2.47;;;;;;;16.41;94.22;100732.94;5025981;28;20054;-79
2023/10/23 04:01:14;;;;;;;4.30;2.60;;;;;;;16.39;93.31;100732.06;5021806;28;20060;-80
2023/10/23 04:03:42;;;;;;;6.00;2.67;;;;;;;16.38;93.04;100742.47;5023174;28;20057;-77
2023/10/23 04:06:13;;;;;;;3.35;2.13;;;;;;;16.37;92.78;100738.13;5019425;28;20045;-77
2023/10/23 04:08:42;;;;;;;2.97;2.33;;;;;;;16.36;92.81;100745.09;5021066;28;20053;-78
2023/10/23 04:11:15;;;;;;;2.92;2.22;;;;;;;16.32;92.20;100743.34;5017798;28;20049;-80
2023/10/23 04:13:43;;;;;;;4.28;2.53;;;;;;;16.27;94.86;100742.44;5024618;28;20073;-79
2023/10/23 04:16:16;;;;;;;4.78;2.55;;;;;;;16.21;93.76;100747.63;5025322;28;20049;-80
2023/10/23 04:18:45;;;;;;;6.35;2.47;;;;;;;16.10;94.31;100748.44;5025608;28;20137;-79
2023/10/23 04:21:14;;;;;;;4.95;2.60;;;;;;;16.05;95.61;100755.31;5025398;28;20046;-81
2023/10/23 04:23:42;;;;;;;3.25;2.30;;;;;;;16.02;95.29;100767.50;5044128;28;20053;-78
2023/10/23 04:26:15;;;;;;;3.67;2.60;;;;;;;15.93;94.18;100765.69;5043178;28;20045;-80
2023/10/23 04:28:44;;;;;;;3.70;2.63;;;;;;;15.88;93.82;100763.03;5043404;28;20136;-78
2023/10/23 04:31:12;;;;;;;4.53;2.47;;;;;;;15.79;92.69;100759.50;5042821;28;20569;-77
2023/10/23 04:33:41;;;;;;;2.88;1.90;;;;;;;15.72;93.49;100762.91;5039547;28;20124;-78
2023/10/23 04:36:13;;;;;;;8.27;2.35;;;;;;;15.63;94.91;100774.09;5046069;28;20053;-80
2023/10/23 04:38:43;;;;;;;3.93;2.27;;;;;;;15.57;95.30;100771.44;5040854;28;20049;-80
2023/10/23 04:41:14;;;;;;;2.92;2.00;;;;;;;15.53;95.35;100780.97;5036372;28;20089;-77
2023/10/23 04:43:42;;;;;;;6.18;2.60;;;;;;;15.49;96.38;100779.19;5035798;28;20052;-79
2023/10/23 04:46:11;;;;;;;3.42;2.30;;;;;;;15.45;96.73;100782.63;5041886;28;20051;-78
2023/10/23 04:48:41;;;;;;;5.47;2.13;;;;;;;15.41;97.19;100786.06;5041875;28;20095;-78
2023/10/23 04:51:10;;;;;;;4.75;2.42;;;;;;;15.35;96.74;100786.00;5042066;28;20738;-78
2023/10/23 04:53:39;;;;;;;5.97;2.15;;;;;;;15.30;96.91;100791.16;5045212;28;20049;-80
2023/10/23 04:56:08;;;;;;;4.05;2.80;;;;;;;15.24;96.88;100789.38;5038640;28;20049;-76
2023/10/23 04:58:39;;;;;;;3.88;2.38;;;;;;;15.20;97.19;100803.22;5041431;28;20127;-79
2023/10/23 05:01:16;;;;;;;3.95;2.30;;;;;;;15.12;97.81;100804.88;5039566;28;20050;-76
2023/10/23 05:03:44;;;;;;;4.43;2.40;;;;;;;15.08;98.36;100810.91;5041179;28;20056;-77
2023/10/23 05:06:13;;;;;;;3.40;2.10;;;;;;;15.05;100.00;100810.88;5042634;28;20050;-77
2023/10/23 05:08:43;;;;;;;4.05;2.35;;;;;;;15.01;99.44;100811.69;5035957;28;20099;-76
2023/10/23 05:11:13;;;;;;;4.95;2.65;;;;;;;14.93;100.00;100814.19;5039230;28;20053;-76
2023/10/23 05:13:44;;;;;;;4.80;2.92;;;;;;;14.85;100.00;100815.81;5039690;28;20055;-75
2023/10/23 05:16:12;;;;;;;3.53;2.20;;;;;;;14.81;100.00;100814.91;5042633;28;20060;-76
2023/10/23 05:18:41;;;;;;;3.28;2.30;;;;;;;14.79;100.00;100813.13;5042834;28;20052;-77
2023/10/23 05:21:14;;;;;;;4.53;2.60;;;;;;;14.74;100.00;100802.66;5041944;28;20041;-76
2023/10/23 05:23:43;;;;;;;6.72;2.58;;;;;;;14.73;100.00;100803.53;5035546;28;20080;-77
2023/10/23 05:26:12;;;;;;;6.78;2.67;;;;;;;14.74;100.00;100801.78;5045622;28;20522;-77
2023/10/23 05:28:42;;;;;;;5.82;2.42;;;;;;;14.68;100.00;100799.09;5039082;28;20530;-77
2023/10/23 05:31:11;;;;;;;4.90;2.53;;;;;;;14.71;100.00;100809.56;5035955;28;20045;-76
2023/10/23 05:33:40;;;;;;;3.58;2.20;;;;;;;14.68;100.00;100809.50;5040951;28;20135;-78
2023/10/23 05:36:09;;;;;;;3.85;2.10;;;;;;;14.70;100.00;100818.22;5045728;28;20050;-77
2023/10/23 05:38:38;;;;;;;8.27;2.50;;;;;;;14.71;100.00;100817.38;5043588;28;20275;-76
2023/10/23 05:41:09;;;;;;;4.07;2.67;;;;;;;14.69;100.00;100814.75;5041259;28;20057;-78
2023/10/23 05:43:41;;;;;;;4.57;2.30;;;;;;;14.67;100.00;100813.84;5040408;28;20053;-77
2023/10/23 05:46:11;;;;;;;3.33;1.92;;;;;;;14.68;100.00;100817.31;5040007;28;20041;-76
2023/10/23 05:48:40;;;;;;;3.05;2.38;;;;;;;14.65;100.00;100821.63;5043630;28;20480;-78
2023/10/23 05:51:08;;;;;;;5.32;2.65;;;;;;;14.62;100.00;100823.34;5041903;28;20575;-77
2023/10/23 05:53:37;;;;;;;5.78;2.65;;;;;;;14.56;100.00;100829.31;5036793;28;20052;-76
2023/10/23 05:56:06;;;;;;;4.07;2.30;;;;;;;14.54;100.00;100830.13;5039708;28;20068;-77
2023/10/23 05:58:36;;;;;;;3.05;2.35;;;;;;;14.54;100.00;100838.81;5039823;28;20050;-77
2023/10/23 06:01:08;;;;;;;10.98;2.70;;;;;;;14.51;100.00;100830.09;5044618;28;20041;-76
2023/10/23 06:03:44;;;;;;;6.97;3.05;;;;;;;14.46;100.00;100828.28;5040036;28;20047;-76
2023/10/23 06:06:12;;;;;;;5.90;2.80;;;;;;;14.44;100.00;100824.78;5040046;28;20520;-77
2023/10/23 06:08:41;;;;;;;5.60;3.30;;;;;;;14.42;100.00;100820.41;5036983;28;20065;-76
2023/10/23 06:11:10;;;;;;;4.93;3.33;;;;;;;14.39;100.00;100835.97;5041078;28;20461;-75
2023/10/23 06:13:41;;;;;;;4.50;2.70;;;;;;;14.33;100.00;100828.94;5042420;28;20254;-77
2023/10/23 06:16:10;;;;;;;9.35;3.30;;;;;;;14.33;100.00;100835.88;5044061;28;20053;-77
2023/10/23 06:18:40;;;;;;;4.75;3.20;;;;;;;14.31;100.00;100835.84;5040578;28;20060;-77
2023/10/23 06:21:09;;;;;;;5.47;3.13;;;;;;;14.30;100.00;100839.31;5044711;28;20541;-77
2023/10/23 06:23:39;;;;;;;9.95;3.70;;;;;;;14.28;100.00;100830.59;5046851;28;20119;-77
2023/10/23 06:26:11;;;;;;;6.38;2.97;;;;;;;14.27;100.00;100831.47;5046731;28;20149;-78
2023/10/23 06:28:39;;;;;;;4.22;2.42;;;;;;;14.25;100.00;100841.84;5044001;28;20053;-77
2023/10/23 06:31:09;;;;;;;5.00;2.70;;;;;;;14.23;100.00;100830.53;5038782;28;20049;-77
2023/10/23 06:33:38;;;;;;;7.70;2.90;;;;;;;14.23;100.00;100829.66;5043262;28;20060;-78
2023/10/23 06:36:09;;;;;;;10.02;3.20;;;;;;;14.25;100.00;100838.38;5044214;28;20136;-78
2023/10/23 06:38:38;;;;;;;6.20;2.85;;;;;;;14.23;100.00;100834.88;5043262;28;20068;-79
2023/10/23 06:41:07;;;;;;;6.22;3.28;;;;;;;14.24;100.00;100832.28;5048700;28;20041;-77
2023/10/23 06:43:37;;;;;;;5.43;2.58;;;;;;;14.23;100.00;100840.94;5047106;28;20128;-77
2023/10/23 06:46:15;;;;;;;;;;;;;;;;;;;;;
2023/10/23 06:48:46;;;;;;;5.63;2.90;;;;;;;14.20;100.00;100850.41;5039597;28;20061;-77
2023/10/23 06:51:16;;;;;;;5.47;2.70;;;;;;;14.19;100.00;100853.88;5038050;28;20546;-77
2023/10/23 06:53:45;;;;;;;10.30;3.03;;;;;;;14.17;100.00;100850.38;5039044;28;20418;-77
2023/10/23 06:56:22;;;;;;;7.75;3.00;;;;;;;14.14;100.00;100845.13;5045531;28;20388;-77
2023/10/23 06:58:51;;;;;;;6.47;2.65;;;;;;;14.13;100.00;100848.56;5047257;28;20048;-78
2023/10/23 07:01:19;;;;;;;3.95;2.40;;;;;;;14.13;100.00;100853.78;5043853;28;20040;-77
2023/10/23 07:03:48;;;;;;;6.90;3.20;;;;;;;14.13;100.00;100851.16;5045213;28;20044;-77
2023/10/23 07:06:21;;;;;;;5.55;2.38;;;;;;;14.16;100.00;100846.91;5047659;28;20498;-75
2023/10/23 07:08:49;;;;;;;6.40;2.60;;;;;;;14.21;100.00;100846.97;5043100;28;20585;-77
2023/10/23 07:11:19;;;;;;;4.68;2.65;;;;;;;14.21;100.00;100855.66;5047929;28;20060;-77
2023/10/23 07:13:49;;;;;;;7.22;2.50;;;;;;;14.21;100.00;100852.19;5046049;28;20101;-77
2023/10/23 07:16:21;;;;;;;3.72;2.55;;;;;;;14.25;100.00;100859.19;5040514;28;20053;-76
2023/10/23 07:18:50;;;;;;;3.93;2.27;;;;;;;14.24;100.00;100860.03;5044686;28;20113;-78
2023/10/23 07:21:23;;;;;;;7.88;2.65;;;;;;;14.24;100.00;100858.28;5044812;28;20290;-77
2023/10/23 07:23:51;;;;;;;6.97;2.92;;;;;;;14.22;100.00;100867.84;5004631;28;20062;-77
2023/10/23 07:26:25;;;;;;;6.60;2.35;;;;;;;14.22;100.00;100869.53;5005052;28;20049;-77
2023/10/23 07:28:53;;;;;;;7.00;2.50;;;;;;;14.22;100.00;100874.75;4998757;28;20108;-78
2023/10/23 07:31:22;;;;;;;4.82;2.50;;;;;;;14.23;100.00;100874.78;5003558;28;20050;-77
2023/10/23 07:33:51;;;;;;;8.93;3.00;;;;;;;14.21;100.00;100878.22;4999193;28;20058;-78
2023/10/23 07:36:25;;;;;;;4.32;2.55;;;;;;;14.20;100.00;100882.53;5009141;28;20050;-76
2023/10/23 07:38:54;;;;;;;5.20;2.22;;;;;;;14.20;100.00;100892.94;5001422;28;20057;-76
2023/10/23 07:41:22;;;;;;;8.85;2.65;;;;;;;14.19;100.00;100888.59;5006332;28;20096;-76
2023/10/23 07:43:51;;;;;;;3.33;2.05;;;;;;;14.10;100.00;100874.53;4999529;28;20050;-76
2023/10/23 07:46:37;;;;;;;8.20;2.92;;;;;;;14.19;100.00;100891.19;5001794;28;20108;-76
2023/10/23 07:49:06;;;;;;;7.47;2.38;;;;;;;14.16;100.00;100901.56;5001632;28;20049;-76
2023/10/23 07:51:36;;;;;;;3.90;2.00;;;;;;;14.12;100.00;100894.53;5005102;28;20054;-77
2023/10/23 07:54:14;;;;;;;6.47;2.65;;;;;;;14.08;100.00;100897.06;5002710;28;20128;-76
2023/10/23 07:56:43;;;;;;;5.35;2.00;;;;;;;14.04;100.00;100901.31;4997130;28;20038;-77
2023/10/23 07:59:12;;;;;;;7.75;2.67;;;;;;;13.99;100.00;100909.03;4999153;28;20053;-77
2023/10/23 08:01:42;;;;;;;4.28;2.55;;;;;;;13.95;100.00;100909.84;5008404;28;20100;-77
2023/10/23 08:04:14;;;;;;;3.55;2.40;;;;;;;13.91;100.00;100904.56;4998600;28;20060;-76
2023/10/23 08:06:46;;;;;;;4.90;2.60;;;;;;;13.86;100.00;100914.00;5004362;28;20133;-76
2023/10/23 08:09:15;;;;;;;4.07;2.42;;;;;;;13.79;100.00;100903.50;5002929;28;20060;-76
2023/10/23 08:11:42;;;;;;;5.68;2.72;;;;;;;13.74;100.00;100914.66;5000169;28;20142;-76
2023/10/23 08:14:14;;;;;;;4.50;2.45;;;;;;;13.71;100.00;100899.00;5003799;28;20049;-77
2023/10/23 08:16:42;;;;;;;8.65;2.85;;;;;;;13.66;100.00;100904.09;5004582;28;20660;-76
2023/10/23 08:19:12;;;;;;;5.50;2.45;;;;;;;13.55;100.00;100892.63;5003529;28;20057;-76
2023/10/23 08:21:41;;;;;;;8.95;2.58;;;;;;;13.62;100.00;100908.34;5005039;28;20043;-75
2023/10/23 08:24:11;;;;;;;6.45;2.45;;;;;;;13.59;100.00;100910.91;5039032;28;20146;-77
2023/10/23 08:26:40;;;;;;;4.43;2.53;;;;;;;13.57;100.00;100904.78;5039099;28;20057;-75
2023/10/23 08:29:09;;;;;;;7.18;2.90;;;;;;;13.57;100.00;100919.53;5038965;28;20544;-75
2023/10/23 08:31:37;;;;;;;4.05;2.70;;;;;;;13.56;100.00;100923.84;5044685;28;20053;-76
2023/10/23 08:34:06;;;;;;;4.10;2.25;;;;;;;13.54;100.00;100929.88;5043381;28;20107;-76
2023/10/23 08:36:35;;;;;;;7.43;2.70;;;;;;;13.52;100.00;100927.25;5044622;28;20099;-75
2023/10/23 08:39:04;;;;;;;4.80;2.35;;;;;;;13.51;100.00;100930.66;5042136;28;20045;-75
2023/10/23 08:41:36;;;;;;;5.90;2.40;;;;;;;13.50;100.00;100934.13;5038248;28;20896;-75
2023/10/23 08:44:05;;;;;;;4.07;2.40;;;;;;;13.49;100.00;100937.59;5044766;28;20055;-75
2023/10/23 08:46:37;;;;;;;4.75;2.50;;;;;;;13.48;100.00;100928.00;5039737;28;20530;-75
2023/10/23 08:49:06;;;;;;;7.05;2.58;;;;;;;13.47;100.00;100922.78;5036967;28;20052;-76
2023/10/23 08:51:35;;;;;;;11.27;2.90;;;;;;;13.46;100.00;100921.91;5041616;28;20128;-76
2023/10/23 08:54:08;;;;;;;4.93;2.50;;;;;;;13.47;100.00;100915.88;5043050;28;20049;-76
2023/10/23 08:56:42;;;;;;;4.28;2.60;;;;;;;13.46;100.00;100916.69;5041945;28;21230;-76
2023/10/23 08:59:12;;;;;;;5.18;2.60;;;;;;;13.36;100.00;100900.06;5042620;28;20041;-76
2023/10/23 09:01:41;;;;;;;2.95;2.22;;;;;;;13.39;100.00;100910.50;5037030;28;20068;-76
2023/10/23 09:04:11;;;;;;;5.32;2.47;;;;;;;13.36;100.00;100914.78;5040311;28;20121;-76
2023/10/23 09:06:45;;;;;;;3.95;2.30;;;;;;;13.35;100.00;100915.59;5040423;28;20051;-77
2023/10/23 09:09:14;;;;;;;4.30;2.78;;;;;;;13.36;100.00;100904.38;5037014;28;20047;-77
2023/10/23 09:11:46;;;;;;;6.35;2.63;;;;;;;13.37;100.00;100911.31;5040291;28;20057;-77
2023/10/23 09:14:25;;;;;;;4.22;2.63;;;;;;;13.38;100.00;100923.50;5040567;28;20561;-78
2023/10/23 09:16:55;;;;;;;4.97;2.25;;;;;;;13.38;100.00;100939.09;5034249;28;20037;-78
2023/10/23 09:19:32;;;;;;;3.67;2.47;;;;;;;13.37;100.00;100942.50;5033682;28;20045;-77
2023/10/23 09:22:06;;;;;;;5.28;2.40;;;;;;;13.38;100.00;100955.53;5035386;28;20061;-77
2023/10/23 09:24:35;;;;;;;6.55;2.42;;;;;;;13.37;100.00;100963.31;5036021;28;20049;-76
2023/10/23 09:27:06;;;;;;;5.07;2.53;;;;;;;13.42;100.00;100956.47;5040227;28;20049;-77
2023/10/23 09:29:35;;;;;;;8.38;2.53;;;;;;;13.44;100.00;100954.78;5037568;28;20434;-77
2023/10/23 09:32:09;;;;;;;5.40;2.53;;;;;;;13.48;100.00;100960.94;5037140;28;20510;-77
2023/10/23 09:34:44;;;;;;;6.32;2.50;;;;;;;13.51;100.00;100956.66;5037698;28;20052;-77
2023/10/23 09:37:13;;;;;;;7.05;2.45;;;;;;;13.52;100.00;100958.44;5034550;28;20057;-77
2023/10/23 09:39:42;;;;;;;4.25;2.53;;;;;;;13.53;100.00;100957.56;5042181;28;20040;-77
2023/10/23 09:42:12;;;;;;;5.72;2.15;;;;;;;13.55;100.00;100957.63;5041942;28;20045;-77
2023/10/23 09:44:42;;;;;;;11.25;2.88;;;;;;;13.57;100.00;100949.00;5042180;28;20139;-77
2023/10/23 09:47:12;;;;;;;3.58;2.85;;;;;;;13.58;100.00;100955.97;5038990;28;20046;-77
2023/10/23 09:49:43;;;;;;;2.92;2.20;;;;;;;13.62;100.00;100955.16;5033227;28;20053;-76
2023/10/23 09:52:15;;;;;;;4.43;2.80;;;;;;;13.64;100.00;100951.72;5034024;28;20083;-77
2023/10/23 09:54:46;;;;;;;5.85;2.72;;;;;;;13.64;100.00;100951.72;5036915;28;20057;-77
2023/10/23 09:57:18;;;;;;;5.35;2.75;;;;;;;13.68;100.00;100948.34;5033215;28;20055;-77
2023/10/23 09:59:58;;;;;;;4.63;2.50;;;;;;;13.71;100.00;100959.66;5045397;28;20419;-76
2023/10/23 10:02:30;;;;;;;4.72;2.80;;;;;;;13.72;100.00;100955.34;5037765;28;20040;-77
2023/10/23 10:05:05;;;;;;;4.55;2.88;;;;;;;13.70;100.00;100951.81;5039918;28;20049;-76
2023/10/23 10:07:43;;;;;;;5.65;2.65;;;;;;;13.71;100.00;100951.88;5043119;28;20045;-77
2023/10/23 10:10:13;;;;;;;3.95;2.30;;;;;;;13.70;100.00;100938.81;5039624;28;20044;-77
2023/10/23 10:12:46;;;;;;;7.07;3.47;;;;;;;13.71;100.00;100930.19;5039530;28;20557;-76
2023/10/23 10:15:18;;;;;;;4.82;2.85;;;;;;;13.73;100.00;100936.31;5037286;28;20051;-77
2023/10/23 10:17:49;;;;;;;4.88;2.92;;;;;;;13.70;100.00;100928.44;5041174;28;20049;-77
2023/10/23 10:20:19;;;;;;;11.23;3.35;;;;;;;13.68;100.00;100927.56;5033836;28;20077;-77
2023/10/23 10:22:55;;;;;;;9.05;2.85;;;;;;;13.67;100.00;100930.97;5037413;28;20486;-77
2023/10/23 10:25:27;;;;;;;5.65;3.08;;;;;;;13.68;100.00;100937.94;5040607;28;20059;-76
2023/10/23 10:28:03;;;;;;;7.10;2.78;;;;;;;13.71;100.00;100940.59;5039029;28;20049;-77
2023/10/23 10:30:45;;;;;;;5.30;2.78;;;;;;;13.71;100.00;100938.00;5031998;28;20053;-76
2023/10/23 10:33:18;;;;;;;8.07;3.55;;;;;;;13.73;100.00;100941.50;5038261;28;20100;-77
2023/10/23 10:35:52;;;;;;;5.50;2.72;;;;;;;13.75;100.00;100934.63;5038948;28;20033;-76
2023/10/23 10:38:31;;;;;;;8.52;2.72;;;;;;;13.71;100.00;100938.00;5035263;28;20076;-77
2023/10/23 10:41:00;;;;;;;5.50;2.92;;;;;;;13.65;100.00;100933.53;5035850;28;20663;-76
2023/10/23 10:43:34;;;;;;;5.30;2.72;;;;;;;13.66;100.00;100950.03;5037853;28;20059;-77
2023/10/23 10:46:05;;;;;;;4.05;2.92;;;;;;;13.66;100.00;100945.72;5036505;28;20128;-77
2023/10/23 10:48:48;;;;;;;6.78;3.05;;;;;;;13.67;100.00;100946.59;5039830;28;20050;-77
2023/10/23 10:51:23;;;;;;;3.80;2.55;;;;;;;13.66;100.00;100950.91;5038632;28;20160;-77
2023/10/23 10:54:00;;;;;;;5.55;2.70;;;;;;;13.70;100.00;100957.94;5032602;28;20132;-77
2023/10/23 10:56:37;;;;;;;4.57;2.53;;;;;;;13.70;100.00;100952.72;5039638;28;20060;-77
2023/10/23 10:59:07;;;;;;;6.85;2.50;;;;;;;13.68;100.00;100945.75;5041107;28;20052;-77
2023/10/23 11:01:36;;;;;;;5.43;2.72;;;;;;;13.66;100.00;100944.84;5039187;28;20625;-77
2023/10/23 11:04:06;;;;;;;4.45;2.67;;;;;;;13.63;100.00;100940.47;5043538;28;20120;-76
2023/10/23 11:06:38;;;;;;;5.85;2.45;;;;;;;13.64;100.00;100941.34;5036158;28;20068;-76
2023/10/23 11:09:08;;;;;;;4.93;3.00;;;;;;;13.66;100.00;100944.84;5044070;28;20056;-76
2023/10/23 11:11:39;;;;;;;3.35;2.58;;;;;;;13.68;100.00;100948.34;5039071;28;20555;-77
2023/10/23 11:14:15;;;;;;;5.22;2.38;;;;;;;13.68;100.00;100937.94;5035562;28;20049;-76
2023/10/23 11:16:44;;;;;;;7.72;2.50;;;;;;;13.67;100.00;100946.59;5040484;28;20054;-76
2023/10/23 11:19:13;;;;;;;3.15;2.30;;;;;;;13.66;100.00;100955.25;5038209;28;20100;-77
2023/10/23 11:21:42;;;;;;;3.70;2.47;;;;;;;13.66;100.00;100961.31;5039377;28;20045;-76
2023/10/23 11:24:10;;;;;;;3.95;2.55;;;;;;;13.67;100.00;100957.84;5036034;28;20133;-77
2023/10/23 11:26:41;;;;;;;3.45;2.38;;;;;;;13.72;100.00;100970.94;5039469;28;20061;-77
2023/10/23 11:29:11;;;;;;;6.20;2.90;;;;;;;13.70;100.00;100967.44;5043161;28;20056;-77
2023/10/23 11:31:41;;;;;;;7.40;2.28;;;;;;;13.72;100.00;100973.53;5034004;28;20422;-75
2023/10/23 11:34:10;;;;;;;4.88;3.20;;;;;;;13.74;100.00;100969.25;5032690;28;20050;-76